Avon Lake, Ohio
Current Conditions -  °F | °C
As of 12:51 PM on Thursday 27 Nov 2014 (Local Time) from KCLE Reporting Station
Overcast Overcast  
Wind Chill: -6°   Ceiling: 3000
Heat Index: -1°   Visibility: 10mi
Dew Point: -6°   Wind: 14mph
Humidity: 69%   Direction: 280°W
Pressure: 30.16"   Gusts: NA
Location:  41.51°N, 82.02°W
Report Text: KCLE 271751Z 28012KT 10SM OVC030 M01/M06 A3016 RMK AO2 SNE18 SLP222 4/001 P0000 60000 T10061056 10006 21006 50003 $
Loading
Personal Weather Stations






























Interactive Weather Map New forecast layout! Learn more

10-Day Weather Forecast

Advertisements
Track Severe Weather on mobile